IPI weather

San Luis Airport
Ipiales, NariƱo Department, Colombia

Public forecast

Using degrees Celsius for public forecast. Weather courtesy of forecast.io.

METAR (pilot weather report)

Retrieved 2019/09/22 21:00 UTC (21 minutes ago):

SKIP 222100Z 08010KT 9999 SCT020 16/08 A3039

TAF (pilot weather forecast)

Forecast is more than 12 hours old.

Closest forecast is Teniente Coronel Luis a Mantilla Airport, 3.8 nm (7.1 km) SW. Retrieved 2018/04/06 18:33 UTC (1 year ago):

TAF SPJC 061700Z 0618/0718 25008KT CAVOK TX26/0618Z TN18/0711ZLVA0883 061730 GG KWBCYMYX 061730 SEQUYZYX SPEQ SEQU 061728 SPECI SETU 061728Z 07006KT 9999 -TSRA FEW020CB BKN023 CB OVER STN